createdAt,value
2023-02-18T00:00:30.057Z,5.83
2023-02-18T00:03:41.131Z,4.17
2023-02-18T00:06:49.588Z,8.63
2023-02-18T00:09:58.246Z,5.87
2023-02-18T00:13:06.568Z,6.00
2023-02-18T00:16:14.925Z,3.10
2023-02-18T00:19:24.667Z,2.97
2023-02-18T00:22:33.062Z,4.93
2023-02-18T00:25:41.540Z,7.70
2023-02-18T00:28:51.500Z,4.50
2023-02-18T00:31:59.972Z,6.97
2023-02-18T00:35:12.499Z,7.47
2023-02-18T00:38:24.665Z,6.80
2023-02-18T00:41:33.589Z,7.80
2023-02-18T00:44:42.020Z,6.37
2023-02-18T00:47:50.395Z,7.63
2023-02-18T00:51:00.818Z,6.33
2023-02-18T00:54:09.285Z,9.27
2023-02-18T00:57:17.637Z,5.20
2023-02-18T01:00:26.432Z,5.23
2023-02-18T01:03:35.142Z,7.20
2023-02-18T01:06:44.959Z,6.97
2023-02-18T01:09:53.393Z,3.73
2023-02-18T01:13:01.971Z,6.13
2023-02-18T01:16:11.330Z,4.53
2023-02-18T01:19:20.052Z,4.93
2023-02-18T01:22:29.826Z,5.53
2023-02-18T01:25:39.148Z,3.90
2023-02-18T01:28:49.889Z,7.07
2023-02-18T01:31:58.522Z,8.07
2023-02-18T01:35:09.070Z,4.77
2023-02-18T01:38:18.853Z,6.03
2023-02-18T01:41:27.220Z,3.80
2023-02-18T01:44:36.988Z,4.83
2023-02-18T01:47:45.372Z,5.27
2023-02-18T01:50:58.265Z,6.90
2023-02-18T01:54:12.423Z,6.70
2023-02-18T01:57:23.762Z,4.77
2023-02-18T02:00:37.407Z,5.00
2023-02-18T02:03:45.833Z,3.50
2023-02-18T02:06:56.441Z,4.93
2023-02-18T02:10:07.610Z,4.60
2023-02-18T02:13:22.696Z,5.90
2023-02-18T02:16:39.098Z,6.20
2023-02-18T02:20:25.914Z,7.73
2023-02-18T02:24:12.045Z,5.13
2023-02-18T02:27:26.168Z,4.90
2023-02-18T02:30:57.640Z,4.77
2023-02-18T02:34:36.010Z,5.53
2023-02-18T02:37:50.503Z,4.03
2023-02-18T02:41:08.258Z,4.37
2023-02-18T02:44:22.676Z,5.57
2023-02-18T02:47:37.869Z,4.93
2023-02-18T02:50:55.937Z,6.10
2023-02-18T02:54:13.333Z,2.90
2023-02-18T02:57:56.059Z,4.87
2023-02-18T03:01:27.136Z,4.07
2023-02-18T03:05:09.655Z,6.70
2023-02-18T03:08:31.437Z,5.47
2023-02-18T03:11:47.587Z,7.17
2023-02-18T03:15:02.719Z,5.27
2023-02-18T03:18:18.533Z,2.87
2023-02-18T03:21:31.210Z,8.73
2023-02-18T03:24:43.634Z,4.40
2023-02-18T03:27:59.560Z,3.47
2023-02-18T03:31:13.193Z,4.43
2023-02-18T03:34:26.327Z,5.73
2023-02-18T03:37:39.147Z,3.47
2023-02-18T03:40:49.207Z,5.37
2023-02-18T03:44:02.307Z,5.50
2023-02-18T03:47:10.725Z,3.27
2023-02-18T03:50:19.375Z,7.27
2023-02-18T03:53:27.828Z,5.83
2023-02-18T03:56:38.349Z,5.97
2023-02-18T03:59:46.867Z,4.33
2023-02-18T04:02:55.231Z,4.20
2023-02-18T04:06:03.595Z,6.93
2023-02-18T04:09:11.935Z,10.10
2023-02-18T04:12:23.944Z,5.17
2023-02-18T04:15:34.638Z,4.53
2023-02-18T04:18:42.972Z,5.23
2023-02-18T04:21:51.386Z,4.70
2023-02-18T04:25:00.584Z,4.03
2023-02-18T04:28:13.334Z,6.80
2023-02-18T04:31:21.852Z,5.53
2023-02-18T04:34:30.245Z,8.83
2023-02-18T04:37:38.604Z,5.70
2023-02-18T04:40:46.996Z,6.83
2023-02-18T04:43:56.804Z,4.83
2023-02-18T04:47:05.905Z,3.27
2023-02-18T04:50:14.275Z,5.47
2023-02-18T04:53:22.667Z,4.20
2023-02-18T04:56:30.992Z,6.20
2023-02-18T04:59:41.121Z,7.53
2023-02-18T05:02:49.469Z,4.93
2023-02-18T05:05:58.029Z,7.60
2023-02-18T05:09:06.402Z,3.90
2023-02-18T05:12:14.768Z,4.17
2023-02-18T05:15:24.633Z,5.93
2023-02-18T05:18:33.021Z,4.17
2023-02-18T05:21:41.494Z,4.40
2023-02-18T05:24:49.853Z,8.37
2023-02-18T05:27:58.386Z,4.63
2023-02-18T05:31:08.314Z,3.67
2023-02-18T05:34:16.770Z,4.03
2023-02-18T05:37:25.277Z,8.33
2023-02-18T05:40:33.739Z,5.97
2023-02-18T05:43:55.965Z,7.07
2023-02-18T05:47:09.855Z,4.13
2023-02-18T05:50:19.522Z,4.73
2023-02-18T05:53:27.940Z,6.40
2023-02-18T05:56:36.276Z,7.77
2023-02-18T05:59:44.577Z,6.97
2023-02-18T06:02:54.349Z,4.93
2023-02-18T06:06:03.213Z,5.47
2023-02-18T06:09:12.073Z,6.50
2023-02-18T06:12:20.418Z,4.30
2023-02-18T06:15:28.837Z,3.63
2023-02-18T06:18:38.674Z,7.20
2023-02-18T06:21:47.217Z,2.97
2023-02-18T06:24:55.561Z,6.30
2023-02-18T06:28:03.893Z,9.13
2023-02-18T06:31:12.486Z,3.60
2023-02-18T06:34:22.260Z,5.87
2023-02-18T06:37:30.609Z,4.67
2023-02-18T06:40:38.964Z,4.17
2023-02-18T06:43:47.267Z,5.67
2023-02-18T06:46:55.722Z,5.17
2023-02-18T06:50:06.341Z,5.10
2023-02-18T06:53:17.064Z,8.07
2023-02-18T06:56:25.472Z,5.47
2023-02-18T06:59:33.876Z,3.53
2023-02-18T07:02:42.196Z,4.70
2023-02-18T07:05:51.988Z,7.23
2023-02-18T07:09:00.414Z,3.93
2023-02-18T07:12:08.911Z,3.10
2023-02-18T07:15:17.976Z,4.20
2023-02-18T07:18:26.357Z,2.23
2023-02-18T07:21:36.141Z,4.00
2023-02-18T07:24:44.734Z,2.23
2023-02-18T07:27:53.632Z,2.67
2023-02-18T07:31:02.454Z,2.37
2023-02-18T07:34:10.868Z,1.53
2023-02-18T07:37:20.829Z,1.63
2023-02-18T07:40:29.479Z,4.80
2023-02-18T07:43:37.847Z,3.30
2023-02-18T07:46:48.194Z,3.70
2023-02-18T07:49:56.877Z,4.13
2023-02-18T07:53:07.191Z,3.20
2023-02-18T07:56:15.708Z,2.67
2023-02-18T07:59:24.174Z,2.33
2023-02-18T08:02:32.567Z,2.23
2023-02-18T08:05:40.917Z,2.67
2023-02-18T08:08:50.778Z,4.60
2023-02-18T08:11:59.183Z,4.73
2023-02-18T08:15:08.085Z,4.03
2023-02-18T08:18:19.257Z,1.93
2023-02-18T08:21:27.885Z,2.00
2023-02-18T08:24:37.632Z,3.80
2023-02-18T08:27:47.235Z,2.87
2023-02-18T08:30:56.219Z,3.47
2023-02-18T08:34:04.935Z,2.63
2023-02-18T08:37:13.374Z,3.87
2023-02-18T08:40:23.441Z,1.80
2023-02-18T08:43:31.856Z,2.13
2023-02-18T08:46:40.345Z,1.30
2023-02-18T08:49:48.836Z,2.20
2023-02-18T08:53:00.469Z,4.63
2023-02-18T08:56:11.559Z,2.80
2023-02-18T08:59:19.924Z,2.35
2023-02-18T09:02:29.369Z,2.53
2023-02-18T09:05:37.831Z,2.45
2023-02-18T09:08:46.238Z,2.03
2023-02-18T09:11:56.071Z,2.10
2023-02-18T09:15:05.951Z,1.98
2023-02-18T09:18:14.429Z,3.00
2023-02-18T09:21:23.469Z,1.95
2023-02-18T09:24:31.887Z,2.90
2023-02-18T09:27:41.612Z,1.65
2023-02-18T09:30:50.310Z,4.13
2023-02-18T09:34:00.597Z,1.13
2023-02-18T09:37:08.994Z,1.70
2023-02-18T09:40:27.398Z,3.25
2023-02-18T09:43:43.925Z,2.75
2023-02-18T09:46:56.526Z,2.70
2023-02-18T09:50:09.084Z,1.42
2023-02-18T09:53:17.829Z,1.55
2023-02-18T09:56:30.551Z,4.32
2023-02-18T09:59:40.809Z,4.00
2023-02-18T10:02:57.188Z,1.80
2023-02-18T10:06:09.026Z,1.80
2023-02-18T10:09:22.694Z,2.43
2023-02-18T10:12:35.072Z,3.73
2023-02-18T10:15:45.526Z,1.50
2023-02-18T10:18:57.019Z,2.75
2023-02-18T10:22:08.123Z,1.95
2023-02-18T10:25:21.208Z,5.78
2023-02-18T10:28:29.819Z,2.63
2023-02-18T10:31:44.672Z,2.23
2023-02-18T10:35:00.309Z,1.50
2023-02-18T10:38:15.384Z,1.60
2023-02-18T10:41:29.657Z,2.47
2023-02-18T10:44:47.400Z,2.30
2023-02-18T10:48:10.077Z,2.97
2023-02-18T10:51:23.465Z,1.87
2023-02-18T10:54:52.424Z,0.90
2023-02-18T10:58:00.854Z,2.90
2023-02-18T11:01:16.322Z,1.63
2023-02-18T11:04:35.205Z,3.57
2023-02-18T11:07:48.947Z,2.37
2023-02-18T11:10:58.083Z,1.67
2023-02-18T11:14:08.600Z,4.77
2023-02-18T11:17:22.554Z,3.20
2023-02-18T11:20:34.854Z,3.03
2023-02-18T11:23:49.432Z,3.27
2023-02-18T11:26:57.904Z,1.40
2023-02-18T11:30:09.289Z,1.17
2023-02-18T11:33:21.461Z,4.47
2023-02-18T11:36:33.025Z,2.70
2023-02-18T11:39:45.833Z,1.20
2023-02-18T11:43:07.468Z,0.77
2023-02-18T11:46:18.125Z,2.60
2023-02-18T11:49:27.144Z,0.70
2023-02-18T11:52:39.004Z,4.27
2023-02-18T11:55:56.602Z,3.17
2023-02-18T11:59:07.150Z,2.73
2023-02-18T12:02:31.328Z,2.17
2023-02-18T12:05:39.974Z,0.80
2023-02-18T12:08:53.650Z,2.13
2023-02-18T12:12:07.169Z,1.07
2023-02-18T12:15:20.207Z,1.10
2023-02-18T12:19:02.162Z,2.17
2023-02-18T12:22:19.816Z,1.67
2023-02-18T12:25:41.096Z,2.63
2023-02-18T12:29:04.702Z,2.10
2023-02-18T12:32:33.427Z,3.57
2023-02-18T12:35:53.233Z,3.43
2023-02-18T12:39:11.886Z,0.43
2023-02-18T12:42:40.616Z,1.30
2023-02-18T12:46:07.025Z,1.90
2023-02-18T12:49:47.850Z,1.77
2023-02-18T12:53:12.745Z,4.03
2023-02-18T12:56:56.777Z,2.13
2023-02-18T13:00:39.710Z,0.67
2023-02-18T13:04:11.785Z,1.50
2023-02-18T13:07:42.855Z,1.40
2023-02-18T13:11:10.239Z,1.40
2023-02-18T13:14:22.768Z,3.50
2023-02-18T13:17:37.879Z,1.77
2023-02-18T13:20:50.074Z,1.90
2023-02-18T13:24:00.988Z,0.93
2023-02-18T13:27:20.538Z,1.30
2023-02-18T13:30:36.025Z,1.37
2023-02-18T13:33:56.564Z,0.60
2023-02-18T13:37:15.286Z,1.00
2023-02-18T13:40:28.694Z,1.53
2023-02-18T13:43:37.857Z,0.93
2023-02-18T13:46:51.721Z,1.13
2023-02-18T13:50:15.091Z,0.67
2023-02-18T13:53:26.748Z,1.67
2023-02-18T13:56:37.145Z,1.40
2023-02-18T13:59:50.326Z,1.43
2023-02-18T14:03:00.535Z,0.30
2023-02-18T14:06:17.974Z,1.13
2023-02-18T14:09:47.341Z,1.80
2023-02-18T14:13:21.750Z,1.90
2023-02-18T14:17:08.365Z,1.40
2023-02-18T14:20:48.108Z,0.43
2023-02-18T14:24:05.216Z,0.50
2023-02-18T14:27:18.115Z,0.30
2023-02-18T14:30:30.433Z,2.10
2023-02-18T14:33:41.984Z,1.27
2023-02-18T14:36:59.580Z,0.33
2023-02-18T14:40:26.038Z,2.03
2023-02-18T14:43:56.783Z,0.93
2023-02-18T14:47:19.554Z,0.20
2023-02-18T14:50:31.515Z,0.67
2023-02-18T14:53:44.500Z,0.87
2023-02-18T14:56:58.999Z,0.27
2023-02-18T15:00:08.512Z,0.50
2023-02-18T15:03:19.450Z,0.37
2023-02-18T15:06:31.693Z,0.20
2023-02-18T15:09:46.856Z,1.60
2023-02-18T15:12:56.752Z,2.70
2023-02-18T15:16:08.352Z,1.33
2023-02-18T15:19:19.067Z,0.40
2023-02-18T15:22:32.284Z,1.83
2023-02-18T15:25:40.796Z,3.30
2023-02-18T15:28:59.395Z,0.30
2023-02-18T15:32:17.558Z,3.30
2023-02-18T15:35:30.145Z,0.77
2023-02-18T15:38:41.664Z,0.60
2023-02-18T15:41:54.745Z,1.07
2023-02-18T15:45:18.803Z,1.40
2023-02-18T15:48:33.721Z,1.03
2023-02-18T15:51:44.620Z,2.03
2023-02-18T15:54:53.231Z,0.63
2023-02-18T15:58:03.695Z,0.70
2023-02-18T16:01:28.396Z,0.67
2023-02-18T16:04:40.412Z,2.47
2023-02-18T16:07:54.537Z,1.10
2023-02-18T16:11:05.135Z,0.57
2023-02-18T16:14:26.433Z,1.37
2023-02-18T16:17:36.307Z,2.30
2023-02-18T16:20:55.089Z,0.33
2023-02-18T16:24:05.669Z,1.00
2023-02-18T16:27:17.638Z,0.80
2023-02-18T16:30:27.533Z,0.50
2023-02-18T16:33:37.370Z,0.37
2023-02-18T16:37:00.391Z,1.70
2023-02-18T16:40:26.295Z,2.43
2023-02-18T16:43:34.712Z,0.77
2023-02-18T16:46:43.869Z,1.93
2023-02-18T16:49:55.261Z,1.10
2023-02-18T16:53:03.780Z,1.67
2023-02-18T16:56:17.598Z,1.03
2023-02-18T16:59:26.219Z,0.90
2023-02-18T17:02:34.981Z,0.53
2023-02-18T17:05:44.841Z,0.50
2023-02-18T17:08:53.302Z,2.90
2023-02-18T17:12:03.199Z,2.10
2023-02-18T17:15:26.126Z,1.93
2023-02-18T17:18:34.530Z,4.80
2023-02-18T17:21:46.478Z,0.80
2023-02-18T17:24:56.712Z,2.00
2023-02-18T17:28:05.695Z,1.93
2023-02-18T17:31:18.357Z,2.47
2023-02-18T17:34:29.123Z,1.77
2023-02-18T17:37:38.888Z,0.80
2023-02-18T17:40:48.810Z,1.70
2023-02-18T17:43:57.185Z,1.23
2023-02-18T17:47:05.705Z,0.97
2023-02-18T17:50:14.085Z,3.53
2023-02-18T17:53:24.308Z,3.13
2023-02-18T17:56:35.447Z,1.30
2023-02-18T17:59:43.804Z,1.03
2023-02-18T18:02:52.242Z,1.17
2023-02-18T18:06:01.794Z,1.70
2023-02-18T18:09:11.614Z,1.87
2023-02-18T18:12:20.007Z,2.90
2023-02-18T18:15:30.702Z,1.13
2023-02-18T18:18:39.144Z,2.63
2023-02-18T18:21:48.939Z,2.23
2023-02-18T18:24:58.746Z,1.00
2023-02-18T18:28:08.696Z,1.13
2023-02-18T18:31:19.799Z,2.20
2023-02-18T18:34:28.199Z,2.90
2023-02-18T18:37:36.559Z,1.10
2023-02-18T18:40:47.668Z,2.47
2023-02-18T18:43:56.080Z,0.63
2023-02-18T18:47:04.478Z,3.70
2023-02-18T18:50:13.003Z,1.13
2023-02-18T18:53:23.187Z,2.13
2023-02-18T18:56:32.972Z,2.40
2023-02-18T18:59:41.450Z,0.90
2023-02-18T19:02:49.811Z,2.47
2023-02-18T19:05:58.891Z,0.93
2023-02-18T19:09:08.316Z,2.47
2023-02-18T19:12:18.971Z,1.57
2023-02-18T19:15:27.677Z,2.43
2023-02-18T19:18:36.426Z,2.50
2023-02-18T19:21:46.540Z,1.03
2023-02-18T19:24:54.928Z,3.00
2023-02-18T19:28:05.166Z,0.77
2023-02-18T19:31:14.096Z,1.83
2023-02-18T19:34:23.151Z,0.77
2023-02-18T19:37:35.141Z,0.43
2023-02-18T19:40:44.408Z,2.37
2023-02-18T19:43:55.637Z,0.47
2023-02-18T19:47:04.109Z,1.83
2023-02-18T19:50:15.336Z,0.77
2023-02-18T19:53:23.753Z,2.33
2023-02-18T19:56:32.113Z,1.40
2023-02-18T19:59:42.055Z,1.33
2023-02-18T20:02:51.115Z,1.00
2023-02-18T20:05:59.527Z,1.33
2023-02-18T20:09:07.970Z,1.37
2023-02-18T20:12:16.474Z,3.70
2023-02-18T20:15:26.359Z,2.87
2023-02-18T20:18:34.799Z,2.37
2023-02-18T20:21:43.253Z,0.87
2023-02-18T20:24:51.748Z,2.40
2023-02-18T20:28:01.757Z,1.77
2023-02-18T20:31:14.654Z,1.73
2023-02-18T20:34:23.626Z,0.77
2023-02-18T20:37:32.403Z,1.27
2023-02-18T20:40:40.731Z,1.70
2023-02-18T20:43:49.939Z,1.10
2023-02-18T20:46:59.733Z,1.37
2023-02-18T20:50:08.719Z,2.30
2023-02-18T20:53:17.186Z,1.60
2023-02-18T20:56:25.614Z,1.40
2023-02-18T20:59:34.360Z,1.03
2023-02-18T21:02:44.335Z,0.53
2023-02-18T21:05:56.784Z,0.70
2023-02-18T21:09:05.253Z,4.63
2023-02-18T21:12:13.829Z,1.60
2023-02-18T21:15:22.379Z,1.27
2023-02-18T21:18:32.237Z,1.93
2023-02-18T21:21:40.665Z,0.57
2023-02-18T21:24:51.747Z,1.93
2023-02-18T21:28:00.582Z,2.07
2023-02-18T21:31:17.262Z,1.63
2023-02-18T21:34:27.317Z,2.80
2023-02-18T21:37:35.938Z,2.73
2023-02-18T21:40:45.103Z,1.07
2023-02-18T21:43:53.546Z,2.27
2023-02-18T21:47:02.050Z,2.73
2023-02-18T21:50:15.550Z,1.20
2023-02-18T21:53:24.060Z,0.80
2023-02-18T21:56:32.679Z,1.70
2023-02-18T21:59:41.903Z,1.23
2023-02-18T22:02:50.331Z,0.67
2023-02-18T22:06:00.152Z,0.93
2023-02-18T22:09:08.663Z,2.13
2023-02-18T22:12:17.345Z,0.40
2023-02-18T22:15:25.710Z,0.70
2023-02-18T22:18:34.545Z,1.80
2023-02-18T22:21:45.526Z,2.37
2023-02-18T22:24:53.963Z,1.30
2023-02-18T22:28:02.380Z,1.43
2023-02-18T22:31:12.179Z,1.40
2023-02-18T22:34:21.720Z,2.03
2023-02-18T22:37:31.839Z,0.30
2023-02-18T22:40:40.262Z,0.97
2023-02-18T22:43:49.074Z,2.07
2023-02-18T22:46:58.401Z,1.37
2023-02-18T22:50:07.431Z,2.23
2023-02-18T22:53:17.165Z,1.77
2023-02-18T22:56:26.879Z,1.60
2023-02-18T22:59:35.342Z,2.07
2023-02-18T23:02:43.737Z,2.13
2023-02-18T23:05:52.106Z,0.80
2023-02-18T23:09:01.914Z,3.90
2023-02-18T23:12:10.314Z,0.87
2023-02-18T23:15:18.825Z,2.23
2023-02-18T23:18:27.662Z,1.47
2023-02-18T23:21:36.004Z,2.30
2023-02-18T23:24:46.944Z,1.20
2023-02-18T23:27:55.316Z,2.60
2023-02-18T23:31:03.732Z,1.23
2023-02-18T23:34:15.035Z,2.60
2023-02-18T23:37:44.375Z,0.57
2023-02-18T23:40:54.495Z,0.57
2023-02-18T23:44:04.498Z,0.70
2023-02-18T23:47:12.898Z,1.50
2023-02-18T23:50:21.276Z,3.47
2023-02-18T23:53:30.809Z,3.07
2023-02-18T23:56:40.593Z,1.83
2023-02-18T23:59:48.977Z,0.60
